Terminal Aerodrome Forecast
Issued by NWS

Home | Current Version | Previous Version | Text Only | Print | Product List | Glossary On
Versions: 1 2 3 4 5 6 7 8 9 10 11 12 13 14 15
000
FTUS44 KLIX 272320
TAFMSY
TAF
KMSY 272320Z 2800/2824 08003KT P6SM SCT045 OVC250 PROB30 2815/2816
      4SM -TSRA OVC040CB
     FM281600 13008KT P6SM OVC070 PROB30 2816/2818 4SM -TSRA
      OVC040CB
     FM281800 14009KT P6SM -TSRA OVC050CB=

USA.gov is the U.S. government's official web portal to all federal, state and local government web resources and services.